sensor_id;sensor_type;location;lat;lon;timestamp;pressure;altitude;pressure_sealevel;temperature;humidity
75045;BME280;63614;56.026;35.960;2023-07-13T00:01:29;98358.34;;;13.48;79.54
75045;BME280;63614;56.026;35.960;2023-07-13T00:03:57;98356.19;;;13.44;80.41
75045;BME280;63614;56.026;35.960;2023-07-13T00:06:23;98358.41;;;13.36;80.66
75045;BME280;63614;56.026;35.960;2023-07-13T00:08:51;98356.91;;;13.28;81.47
75045;BME280;63614;56.026;35.960;2023-07-13T00:11:17;98356.56;;;13.24;81.67
75045;BME280;63614;56.026;35.960;2023-07-13T00:13:45;98355.44;;;13.20;81.63
75045;BME280;63614;56.026;35.960;2023-07-13T00:16:11;98364.75;;;13.16;82.19
75045;BME280;63614;56.026;35.960;2023-07-13T00:18:39;98367.13;;;13.06;82.30
75045;BME280;63614;56.026;35.960;2023-07-13T00:21:05;98365.44;;;13.00;82.42
75045;BME280;63614;56.026;35.960;2023-07-13T00:23:36;98359.44;;;12.99;82.77
75045;BME280;63614;56.026;35.960;2023-07-13T00:26:06;98356.72;;;12.94;82.49
75045;BME280;63614;56.026;35.960;2023-07-13T00:28:33;98354.69;;;12.84;82.98
75045;BME280;63614;56.026;35.960;2023-07-13T00:31:00;98352.31;;;12.83;83.04
75045;BME280;63614;56.026;35.960;2023-07-13T00:33:29;98349.22;;;12.86;82.98
75045;BME280;63614;56.026;35.960;2023-07-13T00:35:57;98343.75;;;12.87;82.73
75045;BME280;63614;56.026;35.960;2023-07-13T00:38:23;98346.59;;;12.86;82.68
75045;BME280;63614;56.026;35.960;2023-07-13T00:40:49;98345.59;;;12.87;82.76
75045;BME280;63614;56.026;35.960;2023-07-13T00:43:20;98347.28;;;12.93;82.37
75045;BME280;63614;56.026;35.960;2023-07-13T00:48:32;98352.84;;;12.85;82.61
75045;BME280;63614;56.026;35.960;2023-07-13T00:51:00;98352.97;;;12.78;82.94
75045;BME280;63614;56.026;35.960;2023-07-13T00:53:26;98351.50;;;12.82;83.15
75045;BME280;63614;56.026;35.960;2023-07-13T00:55:58;98354.53;;;12.79;83.27
75045;BME280;63614;56.026;35.960;2023-07-13T00:58:25;98355.44;;;12.73;83.36
75045;BME280;63614;56.026;35.960;2023-07-13T01:00:53;98363.19;;;12.80;82.72
75045;BME280;63614;56.026;35.960;2023-07-13T01:03:19;98360.91;;;12.83;82.08
75045;BME280;63614;56.026;35.960;2023-07-13T01:05:47;98360.13;;;12.83;82.20
75045;BME280;63614;56.026;35.960;2023-07-13T01:08:14;98355.91;;;12.82;82.19
75045;BME280;63614;56.026;35.960;2023-07-13T01:10:52;98352.16;;;12.78;82.49
75045;BME280;63614;56.026;35.960;2023-07-13T01:13:18;98349.09;;;12.81;82.34
75045;BME280;63614;56.026;35.960;2023-07-13T01:15:47;98354.09;;;12.82;82.07
75045;BME280;63614;56.026;35.960;2023-07-13T01:18:16;98349.78;;;12.76;83.22
75045;BME280;63614;56.026;35.960;2023-07-13T01:21:04;98355.34;;;12.80;82.96
75045;BME280;63614;56.026;35.960;2023-07-13T01:23:31;98360.59;;;12.80;83.04
75045;BME280;63614;56.026;35.960;2023-07-13T01:25:58;98351.72;;;12.81;83.44
75045;BME280;63614;56.026;35.960;2023-07-13T01:28:25;98357.75;;;12.81;83.29
75045;BME280;63614;56.026;35.960;2023-07-13T01:30:57;98346.38;;;12.76;82.63
75045;BME280;63614;56.026;35.960;2023-07-13T01:33:23;98345.94;;;12.79;82.79
75045;BME280;63614;56.026;35.960;2023-07-13T01:35:50;98354.91;;;12.83;82.96
75045;BME280;63614;56.026;35.960;2023-07-13T01:38:21;98335.28;;;12.80;82.88
75045;BME280;63614;56.026;35.960;2023-07-13T01:40:47;98334.13;;;12.76;83.04
75045;BME280;63614;56.026;35.960;2023-07-13T01:43:13;98338.44;;;12.82;82.97
75045;BME280;63614;56.026;35.960;2023-07-13T01:45:38;98346.25;;;12.82;82.60
75045;BME280;63614;56.026;35.960;2023-07-13T01:48:05;98341.16;;;12.87;82.61
75045;BME280;63614;56.026;35.960;2023-07-13T01:50:33;98340.94;;;12.89;82.57
75045;BME280;63614;56.026;35.960;2023-07-13T01:52:59;98338.09;;;12.90;82.58
75045;BME280;63614;56.026;35.960;2023-07-13T01:55:31;98339.69;;;12.92;82.67
75045;BME280;63614;56.026;35.960;2023-07-13T01:57:57;98334.13;;;12.88;82.70
75045;BME280;63614;56.026;35.960;2023-07-13T02:00:23;98331.63;;;12.93;82.17
75045;BME280;63614;56.026;35.960;2023-07-13T02:02:51;98327.31;;;12.99;82.33
75045;BME280;63614;56.026;35.960;2023-07-13T02:05:17;98325.59;;;13.04;81.98
75045;BME280;63614;56.026;35.960;2023-07-13T02:07:43;98323.78;;;13.05;81.77
75045;BME280;63614;56.026;35.960;2023-07-13T02:10:10;98325.03;;;13.02;81.20
75045;BME280;63614;56.026;35.960;2023-07-13T02:12:37;98326.84;;;13.02;81.75
75045;BME280;63614;56.026;35.960;2023-07-13T02:15:03;98317.53;;;13.06;81.45
75045;BME280;63614;56.026;35.960;2023-07-13T02:17:31;98318.78;;;13.03;81.88
75045;BME280;63614;56.026;35.960;2023-07-13T02:19:58;98319.47;;;13.11;81.50
75045;BME280;63614;56.026;35.960;2023-07-13T02:22:23;98321.16;;;13.17;80.98
75045;BME280;63614;56.026;35.960;2023-07-13T02:24:49;98318.22;;;13.13;80.02
75045;BME280;63614;56.026;35.960;2023-07-13T02:27:18;98319.09;;;13.19;80.09
75045;BME280;63614;56.026;35.960;2023-07-13T02:29:48;98314.78;;;13.24;80.12
75045;BME280;63614;56.026;35.960;2023-07-13T02:32:17;98318.63;;;13.34;79.65
75045;BME280;63614;56.026;35.960;2023-07-13T02:34:43;98321.13;;;13.29;79.31
75045;BME280;63614;56.026;35.960;2023-07-13T02:37:09;98322.84;;;13.35;79.28
75045;BME280;63614;56.026;35.960;2023-07-13T02:39:38;98321.78;;;13.48;78.67
75045;BME280;63614;56.026;35.960;2023-07-13T02:42:06;98334.16;;;13.52;78.85
75045;BME280;63614;56.026;35.960;2023-07-13T02:44:32;98326.16;;;13.59;78.46
75045;BME280;63614;56.026;35.960;2023-07-13T02:47:01;98320.56;;;13.67;78.28
75045;BME280;63614;56.026;35.960;2023-07-13T02:49:29;98317.00;;;13.56;78.45
75045;BME280;63614;56.026;35.960;2023-07-13T02:51:54;98319.69;;;13.61;78.26
75045;BME280;63614;56.026;35.960;2023-07-13T02:54:20;98317.16;;;13.67;78.32
75045;BME280;63614;56.026;35.960;2023-07-13T02:56:49;98310.69;;;13.69;77.60
75045;BME280;63614;56.026;35.960;2023-07-13T02:59:15;98315.53;;;13.77;77.54
75045;BME280;63614;56.026;35.960;2023-07-13T03:01:40;98312.38;;;13.92;77.11
75045;BME280;63614;56.026;35.960;2023-07-13T03:04:06;98307.72;;;13.94;76.74
75045;BME280;63614;56.026;35.960;2023-07-13T03:06:34;98310.03;;;14.08;76.81
75045;BME280;63614;56.026;35.960;2023-07-13T03:09:00;98309.78;;;14.26;76.44
75045;BME280;63614;56.026;35.960;2023-07-13T03:11:28;98304.25;;;14.40;75.84
75045;BME280;63614;56.026;35.960;2023-07-13T03:14:03;98302.84;;;14.49;74.77
75045;BME280;63614;56.026;35.960;2023-07-13T03:16:33;98309.34;;;14.63;74.08
75045;BME280;63614;56.026;35.960;2023-07-13T03:18:59;98294.97;;;14.66;74.05
75045;BME280;63614;56.026;35.960;2023-07-13T03:21:26;98294.72;;;14.67;74.33
75045;BME280;63614;56.026;35.960;2023-07-13T03:23:52;98300.22;;;14.66;74.03
75045;BME280;63614;56.026;35.960;2023-07-13T03:26:20;98297.19;;;14.57;74.02
75045;BME280;63614;56.026;35.960;2023-07-13T03:28:47;98298.53;;;14.60;74.25
75045;BME280;63614;56.026;35.960;2023-07-13T03:31:24;98299.41;;;14.48;73.43
75045;BME280;63614;56.026;35.960;2023-07-13T03:33:51;98301.47;;;14.46;73.46
75045;BME280;63614;56.026;35.960;2023-07-13T03:36:23;98293.16;;;14.49;73.59
75045;BME280;63614;56.026;35.960;2023-07-13T03:38:56;98306.53;;;14.53;73.38
75045;BME280;63614;56.026;35.960;2023-07-13T03:41:26;98309.91;;;14.65;74.13
75045;BME280;63614;56.026;35.960;2023-07-13T03:43:55;98325.28;;;14.62;73.35
75045;BME280;63614;56.026;35.960;2023-07-13T03:46:23;98313.59;;;14.52;74.11
75045;BME280;63614;56.026;35.960;2023-07-13T03:48:51;98315.44;;;14.52;74.21
75045;BME280;63614;56.026;35.960;2023-07-13T03:51:20;98314.25;;;14.60;73.98
75045;BME280;63614;56.026;35.960;2023-07-13T03:53:47;98318.13;;;14.57;73.93
75045;BME280;63614;56.026;35.960;2023-07-13T03:56:15;98322.44;;;14.63;74.24
75045;BME280;63614;56.026;35.960;2023-07-13T03:58:44;98320.50;;;14.59;73.85
75045;BME280;63614;56.026;35.960;2023-07-13T04:01:18;98327.53;;;14.58;74.22
75045;BME280;63614;56.026;35.960;2023-07-13T04:03:44;98324.25;;;14.63;73.82
75045;BME280;63614;56.026;35.960;2023-07-13T04:06:25;98325.16;;;14.57;73.69
75045;BME280;63614;56.026;35.960;2023-07-13T04:08:57;98324.00;;;14.64;73.30
75045;BME280;63614;56.026;35.960;2023-07-13T04:11:27;98325.59;;;14.65;73.67
75045;BME280;63614;56.026;35.960;2023-07-13T04:13:54;98324.22;;;14.80;73.13
75045;BME280;63614;56.026;35.960;2023-07-13T04:16:20;98322.22;;;14.87;73.22
75045;BME280;63614;56.026;35.960;2023-07-13T04:18:47;98324.53;;;14.83;73.30
75045;BME280;63614;56.026;35.960;2023-07-13T04:21:14;98323.75;;;14.83;72.94
75045;BME280;63614;56.026;35.960;2023-07-13T04:23:40;98328.09;;;14.94;72.76
75045;BME280;63614;56.026;35.960;2023-07-13T04:26:06;98330.22;;;14.97;72.39
75045;BME280;63614;56.026;35.960;2023-07-13T04:28:32;98332.06;;;14.97;72.69
75045;BME280;63614;56.026;35.960;2023-07-13T04:30:59;98339.00;;;15.08;71.81
75045;BME280;63614;56.026;35.960;2023-07-13T04:33:27;98338.03;;;15.14;71.40
75045;BME280;63614;56.026;35.960;2023-07-13T04:35:56;98325.19;;;15.13;71.25
75045;BME280;63614;56.026;35.960;2023-07-13T04:38:24;98326.31;;;15.22;70.52
75045;BME280;63614;56.026;35.960;2023-07-13T04:40:58;98325.50;;;15.38;70.38
75045;BME280;63614;56.026;35.960;2023-07-13T04:43:27;98330.88;;;15.54;70.04
75045;BME280;63614;56.026;35.960;2023-07-13T04:45:56;98320.88;;;15.51;69.61
75045;BME280;63614;56.026;35.960;2023-07-13T04:48:22;98322.91;;;15.66;69.04
75045;BME280;63614;56.026;35.960;2023-07-13T04:50:55;98327.22;;;15.77;68.78
75045;BME280;63614;56.026;35.960;2023-07-13T04:53:21;98322.00;;;15.77;68.85
75045;BME280;63614;56.026;35.960;2023-07-13T04:55:46;98322.94;;;15.71;69.03
75045;BME280;63614;56.026;35.960;2023-07-13T04:58:14;98321.75;;;15.78;68.67
75045;BME280;63614;56.026;35.960;2023-07-13T05:00:40;98317.28;;;15.79;69.22
75045;BME280;63614;56.026;35.960;2023-07-13T05:03:06;98323.66;;;15.88;68.77
75045;BME280;63614;56.026;35.960;2023-07-13T05:05:32;98322.16;;;15.92;68.60
75045;BME280;63614;56.026;35.960;2023-07-13T05:08:00;98321.75;;;16.11;68.20
75045;BME280;63614;56.026;35.960;2023-07-13T05:10:26;98314.44;;;16.13;67.89
75045;BME280;63614;56.026;35.960;2023-07-13T05:12:52;98313.03;;;16.32;67.37
75045;BME280;63614;56.026;35.960;2023-07-13T05:15:23;98312.78;;;16.34;67.11
75045;BME280;63614;56.026;35.960;2023-07-13T05:17:51;98313.69;;;16.50;66.55
75045;BME280;63614;56.026;35.960;2023-07-13T05:20:18;98305.72;;;16.40;66.55
75045;BME280;63614;56.026;35.960;2023-07-13T05:22:45;98309.22;;;16.50;67.23
75045;BME280;63614;56.026;35.960;2023-07-13T05:25:12;98313.97;;;16.59;66.19
75045;BME280;63614;56.026;35.960;2023-07-13T05:27:38;98314.50;;;16.61;65.09
75045;BME280;63614;56.026;35.960;2023-07-13T05:30:04;98307.88;;;16.85;64.99
75045;BME280;63614;56.026;35.960;2023-07-13T05:32:32;98307.69;;;17.02;64.80
75045;BME280;63614;56.026;35.960;2023-07-13T05:35:01;98298.84;;;17.24;63.28
75045;BME280;63614;56.026;35.960;2023-07-13T05:37:28;98302.31;;;17.40;63.42
75045;BME280;63614;56.026;35.960;2023-07-13T05:39:54;98299.94;;;17.38;62.51
75045;BME280;63614;56.026;35.960;2023-07-13T05:42:19;98300.97;;;17.37;63.24
75045;BME280;63614;56.026;35.960;2023-07-13T05:44:45;98297.06;;;17.40;62.63
75045;BME280;63614;56.026;35.960;2023-07-13T05:47:11;98297.63;;;17.57;63.23
75045;BME280;63614;56.026;35.960;2023-07-13T05:49:39;98303.69;;;17.68;62.48
75045;BME280;63614;56.026;35.960;2023-07-13T05:52:05;98293.19;;;17.78;61.93
75045;BME280;63614;56.026;35.960;2023-07-13T05:54:31;98297.66;;;17.73;62.14
75045;BME280;63614;56.026;35.960;2023-07-13T05:56:57;98303.19;;;17.71;61.97
75045;BME280;63614;56.026;35.960;2023-07-13T05:59:25;98301.53;;;17.45;62.97
75045;BME280;63614;56.026;35.960;2023-07-13T06:01:51;98301.28;;;17.56;62.52
75045;BME280;63614;56.026;35.960;2023-07-13T06:04:18;98302.56;;;17.43;62.27
75045;BME280;63614;56.026;35.960;2023-07-13T06:06:47;98301.72;;;17.22;63.17
75045;BME280;63614;56.026;35.960;2023-07-13T06:09:13;98296.22;;;17.24;63.24
75045;BME280;63614;56.026;35.960;2023-07-13T06:11:39;98303.25;;;17.13;63.41
75045;BME280;63614;56.026;35.960;2023-07-13T06:14:05;98300.44;;;17.25;62.31
75045;BME280;63614;56.026;35.960;2023-07-13T06:16:34;98294.41;;;17.35;63.00
75045;BME280;63614;56.026;35.960;2023-07-13T06:18:59;98291.78;;;17.45;62.09
75045;BME280;63614;56.026;35.960;2023-07-13T06:21:25;98292.34;;;17.52;62.05
75045;BME280;63614;56.026;35.960;2023-07-13T06:23:51;98288.69;;;17.58;62.22
75045;BME280;63614;56.026;35.960;2023-07-13T06:26:23;98285.81;;;17.60;61.56
75045;BME280;63614;56.026;35.960;2023-07-13T06:28:52;98290.03;;;17.76;61.84
75045;BME280;63614;56.026;35.960;2023-07-13T06:31:18;98295.81;;;17.73;61.93
75045;BME280;63614;56.026;35.960;2023-07-13T06:33:44;98282.66;;;17.78;61.79
75045;BME280;63614;56.026;35.960;2023-07-13T06:36:12;98291.31;;;17.74;62.79
75045;BME280;63614;56.026;35.960;2023-07-13T06:38:38;98289.72;;;17.63;62.97
75045;BME280;63614;56.026;35.960;2023-07-13T06:41:06;98288.19;;;17.61;62.84
75045;BME280;63614;56.026;35.960;2023-07-13T06:43:32;98292.66;;;17.71;62.82
75045;BME280;63614;56.026;35.960;2023-07-13T06:45:58;98294.22;;;17.62;63.27
75045;BME280;63614;56.026;35.960;2023-07-13T06:48:29;98290.56;;;17.68;62.03
75045;BME280;63614;56.026;35.960;2023-07-13T06:50:55;98295.00;;;17.68;61.75
75045;BME280;63614;56.026;35.960;2023-07-13T06:53:22;98289.75;;;17.68;62.03
75045;BME280;63614;56.026;35.960;2023-07-13T06:55:50;98297.41;;;17.74;61.33
75045;BME280;63614;56.026;35.960;2023-07-13T06:58:19;98298.44;;;17.68;61.47
75045;BME280;63614;56.026;35.960;2023-07-13T07:00:46;98300.00;;;17.69;60.86
75045;BME280;63614;56.026;35.960;2023-07-13T07:03:12;98310.56;;;17.74;61.33
75045;BME280;63614;56.026;35.960;2023-07-13T07:05:40;98305.25;;;17.69;61.50
75045;BME280;63614;56.026;35.960;2023-07-13T07:08:06;98310.25;;;17.55;62.34
75045;BME280;63614;56.026;35.960;2023-07-13T07:10:32;98311.53;;;17.48;61.25
75045;BME280;63614;56.026;35.960;2023-07-13T07:12:57;98307.31;;;17.41;61.51
75045;BME280;63614;56.026;35.960;2023-07-13T07:15:24;98312.03;;;17.39;61.54
75045;BME280;63614;56.026;35.960;2023-07-13T07:17:50;98306.78;;;17.34;61.80
75045;BME280;63614;56.026;35.960;2023-07-13T07:20:21;98305.19;;;17.43;62.57
75045;BME280;63614;56.026;35.960;2023-07-13T07:22:47;98306.78;;;17.39;61.30
75045;BME280;63614;56.026;35.960;2023-07-13T07:25:14;98303.34;;;17.34;61.32
75045;BME280;63614;56.026;35.960;2023-07-13T07:27:39;98312.03;;;17.34;61.73
75045;BME280;63614;56.026;35.960;2023-07-13T07:30:06;98304.09;;;17.24;62.17
75045;BME280;63614;56.026;35.960;2023-07-13T07:32:32;98324.06;;;17.25;62.30
75045;BME280;63614;56.026;35.960;2023-07-13T07:34:58;98313.06;;;17.33;61.74
75045;BME280;63614;56.026;35.960;2023-07-13T07:37:24;98321.19;;;17.27;61.27
75045;BME280;63614;56.026;35.960;2023-07-13T07:39:50;98325.63;;;17.16;60.66
75045;BME280;63614;56.026;35.960;2023-07-13T07:42:16;98326.97;;;17.23;61.70
75045;BME280;63614;56.026;35.960;2023-07-13T07:44:42;98328.25;;;17.16;61.59
75045;BME280;63614;56.026;35.960;2023-07-13T07:47:08;98324.78;;;17.10;61.54
75045;BME280;63614;56.026;35.960;2023-07-13T07:49:37;98326.63;;;17.10;61.88
75045;BME280;63614;56.026;35.960;2023-07-13T07:52:04;98325.84;;;17.09;61.99
75045;BME280;63614;56.026;35.960;2023-07-13T07:54:29;98325.03;;;17.09;62.71
75045;BME280;63614;56.026;35.960;2023-07-13T07:56:55;98330.59;;;17.12;62.31
75045;BME280;63614;56.026;35.960;2023-07-13T07:59:21;98317.16;;;17.09;62.82
75045;BME280;63614;56.026;35.960;2023-07-13T08:01:47;98323.75;;;17.11;63.06
75045;BME280;63614;56.026;35.960;2023-07-13T08:04:16;98310.31;;;17.02;62.76
75045;BME280;63614;56.026;35.960;2023-07-13T08:06:44;98319.50;;;17.05;62.84
75045;BME280;63614;56.026;35.960;2023-07-13T08:09:10;98319.53;;;17.10;62.45
75045;BME280;63614;56.026;35.960;2023-07-13T08:11:35;98317.13;;;16.98;62.92
75045;BME280;63614;56.026;35.960;2023-07-13T08:14:01;98315.59;;;17.08;62.96
75045;BME280;63614;56.026;35.960;2023-07-13T08:16:27;98316.03;;;16.94;63.09
75045;BME280;63614;56.026;35.960;2023-07-13T08:18:55;98311.88;;;17.03;63.13
75045;BME280;63614;56.026;35.960;2023-07-13T08:21:21;98316.91;;;17.10;63.00
75045;BME280;63614;56.026;35.960;2023-07-13T08:23:48;98316.63;;;17.06;63.30
75045;BME280;63614;56.026;35.960;2023-07-13T08:26:13;98321.38;;;17.04;63.56
75045;BME280;63614;56.026;35.960;2023-07-13T08:28:41;98308.47;;;17.03;63.07
75045;BME280;63614;56.026;35.960;2023-07-13T08:31:07;98322.94;;;17.05;63.59
75045;BME280;63614;56.026;35.960;2023-07-13T08:33:35;98315.03;;;17.05;63.55
75045;BME280;63614;56.026;35.960;2023-07-13T08:36:06;98310.31;;;17.02;63.83
75045;BME280;63614;56.026;35.960;2023-07-13T08:38:32;98311.38;;;17.01;63.73
75045;BME280;63614;56.026;35.960;2023-07-13T08:40:58;98313.75;;;17.08;63.28
75045;BME280;63614;56.026;35.960;2023-07-13T08:43:35;98317.66;;;17.00;63.29
75045;BME280;63614;56.026;35.960;2023-07-13T08:46:32;98318.50;;;17.16;62.89
75045;BME280;63614;56.026;35.960;2023-07-13T08:49:13;98319.63;;;17.31;62.20
75045;BME280;63614;56.026;35.960;2023-07-13T08:51:59;98310.16;;;17.30;62.46
75045;BME280;63614;56.026;35.960;2023-07-13T08:54:37;98315.63;;;17.23;62.33
75045;BME280;63614;56.026;35.960;2023-07-13T08:57:21;98306.28;;;17.42;61.57
75045;BME280;63614;56.026;35.960;2023-07-13T08:59:50;98308.34;;;17.40;62.45
75045;BME280;63614;56.026;35.960;2023-07-13T09:02:38;98306.03;;;17.54;60.98
75045;BME280;63614;56.026;35.960;2023-07-13T09:05:17;98312.09;;;17.60;60.45
75045;BME280;63614;56.026;35.960;2023-07-13T09:10:32;98306.59;;;17.72;61.06
75045;BME280;63614;56.026;35.960;2023-07-13T09:13:28;98304.25;;;17.86;60.66
75045;BME280;63614;56.026;35.960;2023-07-13T09:15:59;98304.00;;;17.87;60.05
75045;BME280;63614;56.026;35.960;2023-07-13T09:18:33;98295.88;;;18.09;59.67
75045;BME280;63614;56.026;35.960;2023-07-13T09:21:17;98301.66;;;18.27;60.10
75045;BME280;63614;56.026;35.960;2023-07-13T09:23:47;98297.91;;;18.54;59.28
75045;BME280;63614;56.026;35.960;2023-07-13T09:28:47;98298.69;;;18.69;59.14
75045;BME280;63614;56.026;35.960;2023-07-13T09:31:17;98305.03;;;18.68;57.31
75045;BME280;63614;56.026;35.960;2023-07-13T09:33:45;98306.59;;;18.69;58.33
75045;BME280;63614;56.026;35.960;2023-07-13T09:36:32;98300.78;;;18.88;57.69
75045;BME280;63614;56.026;35.960;2023-07-13T09:39:05;98304.97;;;18.94;56.96
75045;BME280;63614;56.026;35.960;2023-07-13T09:44:34;98300.53;;;18.69;55.07
75045;BME280;63614;56.026;35.960;2023-07-13T09:47:01;98297.38;;;18.72;54.87
75045;BME280;63614;56.026;35.960;2023-07-13T09:49:38;98297.91;;;18.69;54.18
75045;BME280;63614;56.026;35.960;2023-07-13T09:52:06;98295.25;;;18.74;53.99
75045;BME280;63614;56.026;35.960;2023-07-13T09:54:36;98293.16;;;18.71;53.37
75045;BME280;63614;56.026;35.960;2023-07-13T09:57:17;98288.91;;;18.80;53.76
75045;BME280;63614;56.026;35.960;2023-07-13T09:59:46;98285.75;;;18.78;52.74
75045;BME280;63614;56.026;35.960;2023-07-13T10:02:31;98285.22;;;18.76;53.77
75045;BME280;63614;56.026;35.960;2023-07-13T10:05:21;98294.19;;;18.75;53.77
75045;BME280;63614;56.026;35.960;2023-07-13T10:07:50;98283.66;;;18.85;53.75
75045;BME280;63614;56.026;35.960;2023-07-13T10:10:20;98293.63;;;18.94;54.88
75045;BME280;63614;56.026;35.960;2023-07-13T10:12:47;98286.81;;;18.93;54.46
75045;BME280;63614;56.026;35.960;2023-07-13T10:15:20;98286.56;;;18.89;53.11
75045;BME280;63614;56.026;35.960;2023-07-13T10:17:47;98276.56;;;18.86;54.23
75045;BME280;63614;56.026;35.960;2023-07-13T10:20:14;98275.22;;;18.83;54.65
75045;BME280;63614;56.026;35.960;2023-07-13T10:25:18;98277.06;;;18.83;54.66
75045;BME280;63614;56.026;35.960;2023-07-13T10:27:46;98280.22;;;18.80;53.31
75045;BME280;63614;56.026;35.960;2023-07-13T10:30:21;98277.88;;;18.78;54.03
75045;BME280;63614;56.026;35.960;2023-07-13T10:32:53;98285.22;;;18.76;54.72
75045;BME280;63614;56.026;35.960;2023-07-13T10:35:22;98284.19;;;18.77;53.78
75045;BME280;63614;56.026;35.960;2023-07-13T10:38:05;98283.38;;;18.82;54.20
75045;BME280;63614;56.026;35.960;2023-07-13T10:43:28;98279.72;;;18.67;54.29
75045;BME280;63614;56.026;35.960;2023-07-13T10:45:59;98274.97;;;18.69;54.14
75045;BME280;63614;56.026;35.960;2023-07-13T10:48:26;98272.88;;;18.66;54.65
75045;BME280;63614;56.026;35.960;2023-07-13T10:50:53;98281.06;;;18.70;54.73
75045;BME280;63614;56.026;35.960;2023-07-13T10:53:27;98278.69;;;18.63;55.62
75045;BME280;63614;56.026;35.960;2023-07-13T10:58:21;98266.88;;;18.56;55.88
75045;BME280;63614;56.026;35.960;2023-07-13T11:03:36;98268.41;;;18.72;56.07
75045;BME280;63614;56.026;35.960;2023-07-13T11:06:12;98274.97;;;18.69;56.26
75045;BME280;63614;56.026;35.960;2023-07-13T11:13:58;98265.25;;;18.70;56.69
75045;BME280;63614;56.026;35.960;2023-07-13T11:19:38;98274.19;;;18.74;56.96
75045;BME280;63614;56.026;35.960;2023-07-13T11:24:57;98268.38;;;18.77;56.95
75045;BME280;63614;56.026;35.960;2023-07-13T11:33:04;98259.19;;;18.69;58.08
75045;BME280;63614;56.026;35.960;2023-07-13T11:38:22;98257.59;;;18.63;59.37
75045;BME280;63614;56.026;35.960;2023-07-13T11:40:51;98252.88;;;18.60;59.14
75045;BME280;63614;56.026;35.960;2023-07-13T11:43:18;98252.38;;;18.58;59.30
75045;BME280;63614;56.026;35.960;2023-07-13T11:45:45;98253.69;;;18.61;60.27
75045;BME280;63614;56.026;35.960;2023-07-13T11:48:37;98249.22;;;18.56;60.71
75045;BME280;63614;56.026;35.960;2023-07-13T11:51:04;98253.19;;;18.48;61.07
75045;BME280;63614;56.026;35.960;2023-07-13T11:53:40;98256.88;;;18.42;61.79
75045;BME280;63614;56.026;35.960;2023-07-13T11:56:06;98253.22;;;18.38;61.77
75045;BME280;63614;56.026;35.960;2023-07-13T11:58:35;98253.19;;;18.33;61.79
75045;BME280;63614;56.026;35.960;2023-07-13T12:01:02;98254.00;;;18.33;61.50
75045;BME280;63614;56.026;35.960;2023-07-13T12:03:32;98260.56;;;18.36;61.62
75045;BME280;63614;56.026;35.960;2023-07-13T12:06:04;98262.66;;;18.39;61.79
75045;BME280;63614;56.026;35.960;2023-07-13T12:08:39;98270.03;;;18.42;61.90
75045;BME280;63614;56.026;35.960;2023-07-13T12:11:16;98266.88;;;18.30;62.89
75045;BME280;63614;56.026;35.960;2023-07-13T12:13:43;98266.09;;;18.29;61.70
75045;BME280;63614;56.026;35.960;2023-07-13T12:16:24;98270.84;;;18.27;62.36
75045;BME280;63614;56.026;35.960;2023-07-13T12:18:52;98271.38;;;18.29;63.24
75045;BME280;63614;56.026;35.960;2023-07-13T12:21:33;98271.91;;;18.26;65.11
75045;BME280;63614;56.026;35.960;2023-07-13T12:24:01;98271.38;;;18.29;65.30
75045;BME280;63614;56.026;35.960;2023-07-13T12:26:30;98267.44;;;18.32;66.77
75045;BME280;63614;56.026;35.960;2023-07-13T12:29:01;98262.44;;;18.25;67.03
75045;BME280;63614;56.026;35.960;2023-07-13T12:31:33;98261.88;;;18.28;68.20
75045;BME280;63614;56.026;35.960;2023-07-13T12:34:13;98268.47;;;18.31;69.57
75045;BME280;63614;56.026;35.960;2023-07-13T12:41:44;98264.03;;;18.11;72.28
75045;BME280;63614;56.026;35.960;2023-07-13T12:44:16;98271.94;;;18.11;72.70
75045;BME280;63614;56.026;35.960;2023-07-13T12:47:13;98261.91;;;18.03;72.18
75045;BME280;63614;56.026;35.960;2023-07-13T12:49:47;98264.81;;;17.96;71.84
75045;BME280;63614;56.026;35.960;2023-07-13T12:52:16;98252.47;;;18.02;73.06
75045;BME280;63614;56.026;35.960;2023-07-13T12:54:53;98262.19;;;17.96;73.86
75045;BME280;63614;56.026;35.960;2023-07-13T12:57:23;98258.50;;;17.92;74.50
75045;BME280;63614;56.026;35.960;2023-07-13T12:59:52;98260.56;;;17.85;75.07
75045;BME280;63614;56.026;35.960;2023-07-13T13:02:30;98260.06;;;17.83;74.86
75045;BME280;63614;56.026;35.960;2023-07-13T13:05:00;98256.09;;;17.80;74.71
75045;BME280;63614;56.026;35.960;2023-07-13T13:07:28;98263.19;;;17.85;71.23
75045;BME280;63614;56.026;35.960;2023-07-13T13:09:55;98264.78;;;17.81;74.23
75045;BME280;63614;56.026;35.960;2023-07-13T13:12:22;98269.75;;;17.82;73.68
75045;BME280;63614;56.026;35.960;2023-07-13T13:14:49;98265.84;;;17.79;73.90
75045;BME280;63614;56.026;35.960;2023-07-13T13:17:22;98271.34;;;17.78;75.76
75045;BME280;63614;56.026;35.960;2023-07-13T13:19:50;98275.56;;;17.79;75.57
75045;BME280;63614;56.026;35.960;2023-07-13T13:22:20;98271.09;;;17.74;76.44
75045;BME280;63614;56.026;35.960;2023-07-13T13:24:46;98265.84;;;17.74;77.31
75045;BME280;63614;56.026;35.960;2023-07-13T13:27:20;98264.25;;;17.78;76.59
75045;BME280;63614;56.026;35.960;2023-07-13T13:29:49;98268.22;;;17.76;76.20
75045;BME280;63614;56.026;35.960;2023-07-13T13:32:17;98257.94;;;17.79;74.53
75045;BME280;63614;56.026;35.960;2023-07-13T13:34:44;98267.13;;;17.72;76.20
75045;BME280;63614;56.026;35.960;2023-07-13T13:37:36;98274.50;;;17.65;76.18
75045;BME280;63614;56.026;35.960;2023-07-13T13:40:14;98272.91;;;17.69;75.35
75045;BME280;63614;56.026;35.960;2023-07-13T13:42:41;98255.28;;;17.69;73.61
75045;BME280;63614;56.026;35.960;2023-07-13T13:45:09;98258.97;;;17.58;74.84
75045;BME280;63614;56.026;35.960;2023-07-13T13:47:35;98260.03;;;17.67;73.61